createdAt,value
2023-03-21T00:01:29.437Z,50.34
2023-03-21T00:03:55.845Z,50.32
2023-03-21T00:06:22.864Z,50.44
2023-03-21T00:08:49.336Z,50.53
2023-03-21T00:11:15.689Z,50.54
2023-03-21T00:13:44.950Z,50.56
2023-03-21T00:16:16.364Z,50.48
2023-03-21T00:18:47.258Z,50.43
2023-03-21T00:21:40.696Z,50.43
2023-03-21T00:24:01.991Z,50.39
2023-03-21T00:26:28.359Z,50.50
2023-03-21T00:28:54.696Z,50.40
2023-03-21T00:31:21.016Z,50.29
2023-03-21T00:33:49.292Z,50.50
2023-03-21T00:36:15.975Z,50.48
2023-03-21T00:38:42.409Z,50.47
2023-03-21T00:41:19.248Z,50.52
2023-03-21T00:43:51.966Z,50.41
2023-03-21T00:46:18.656Z,50.30
2023-03-21T00:48:45.152Z,50.58
2023-03-21T00:51:13.336Z,50.59
2023-03-21T00:53:39.682Z,50.27
2023-03-21T00:56:06.025Z,50.32
2023-03-21T00:58:32.352Z,50.43
2023-03-21T01:00:58.766Z,50.49
2023-03-21T01:03:26.565Z,50.48
2023-03-21T01:06:05.424Z,50.36
2023-03-21T01:08:44.564Z,50.54
2023-03-21T01:11:17.691Z,50.36
2023-03-21T01:13:54.366Z,50.37
2023-03-21T01:16:24.534Z,50.30
2023-03-21T01:18:50.917Z,50.34
2023-03-21T01:21:17.259Z,50.31
2023-03-21T01:23:43.598Z,50.36
2023-03-21T01:26:10.250Z,50.21
2023-03-21T01:28:36.837Z,50.27
2023-03-21T01:31:03.453Z,50.26
2023-03-21T01:33:30.187Z,50.17
2023-03-21T01:36:06.510Z,50.16
2023-03-21T01:38:38.349Z,50.22
2023-03-21T01:41:17.107Z,50.13
2023-03-21T01:43:45.891Z,50.09
2023-03-21T01:46:12.278Z,50.10
2023-03-21T01:49:12.293Z,50.05
2023-03-21T01:51:50.238Z,50.14
2023-03-21T01:54:21.006Z,50.06
2023-03-21T01:56:47.887Z,50.18
2023-03-21T01:59:21.591Z,50.02
2023-03-21T02:02:07.267Z,50.20
2023-03-21T02:04:38.237Z,50.06
2023-03-21T02:07:14.397Z,50.10
2023-03-21T02:09:46.758Z,50.16
2023-03-21T02:12:16.400Z,49.97
2023-03-21T02:14:43.976Z,50.15
2023-03-21T02:17:27.217Z,50.07
2023-03-21T02:20:08.675Z,49.99
2023-03-21T02:22:53.950Z,49.97
2023-03-21T02:25:39.509Z,50.08
2023-03-21T02:28:09.212Z,50.10
2023-03-21T02:30:51.929Z,50.03
2023-03-21T02:33:35.432Z,49.98
2023-03-21T02:36:11.917Z,50.00
2023-03-21T02:38:47.669Z,50.03
2023-03-21T02:52:45.709Z,49.92
2023-03-21T02:55:15.391Z,49.90
2023-03-21T02:57:56.709Z,49.88
2023-03-21T03:00:27.335Z,49.98
2023-03-21T03:03:08.064Z,49.87
2023-03-21T03:05:37.140Z,49.70
2023-03-21T03:08:09.491Z,49.81
2023-03-21T03:10:51.296Z,49.81
2023-03-21T03:13:24.320Z,49.75
2023-03-21T03:15:57.116Z,49.89
2023-03-21T03:18:33.477Z,49.96
2023-03-21T03:21:29.048Z,49.99
2023-03-21T03:24:07.045Z,49.87
2023-03-21T03:26:34.279Z,49.90
2023-03-21T03:29:05.215Z,49.91
2023-03-21T03:31:38.032Z,49.90
2023-03-21T03:34:07.028Z,50.07
2023-03-21T03:36:39.265Z,49.79
2023-03-21T03:39:13.141Z,49.80
2023-03-21T03:42:07.800Z,49.63
2023-03-21T03:44:38.122Z,49.55
2023-03-21T03:47:15.214Z,49.40
2023-03-21T03:49:48.351Z,49.35
2023-03-21T03:52:26.447Z,49.28
2023-03-21T03:54:59.439Z,49.24
2023-03-21T03:57:26.225Z,49.21
2023-03-21T03:59:53.620Z,49.24
2023-03-21T04:02:43.144Z,49.02
2023-03-21T04:05:09.824Z,49.33
2023-03-21T04:07:36.151Z,49.34
2023-03-21T04:10:02.692Z,49.37
2023-03-21T04:12:31.501Z,49.39
2023-03-21T04:15:17.160Z,49.45
2023-03-21T04:17:48.275Z,49.50
2023-03-21T04:20:23.607Z,49.39
2023-03-21T04:22:56.625Z,49.35
2023-03-21T04:25:32.719Z,49.36
2023-03-21T04:27:59.639Z,49.56
2023-03-21T04:30:35.442Z,49.60
2023-03-21T04:33:07.656Z,49.50
2023-03-21T04:35:37.648Z,49.80
2023-03-21T04:38:05.068Z,49.82
2023-03-21T04:40:31.626Z,49.78
2023-03-21T04:42:58.024Z,49.87
2023-03-21T04:45:24.355Z,49.64
2023-03-21T04:47:50.896Z,49.67
2023-03-21T04:50:17.320Z,49.57
2023-03-21T04:52:43.732Z,49.65
2023-03-21T04:55:10.100Z,49.51
2023-03-21T04:57:38.328Z,49.56
2023-03-21T05:00:09.436Z,49.50
2023-03-21T05:02:36.476Z,49.85
2023-03-21T05:05:02.823Z,49.67
2023-03-21T05:07:31.219Z,49.90
2023-03-21T05:09:57.559Z,49.81
2023-03-21T05:12:23.968Z,49.81
2023-03-21T05:14:50.355Z,49.65
2023-03-21T05:17:23.041Z,49.69
2023-03-21T05:19:52.685Z,49.71
2023-03-21T05:22:19.447Z,49.85
2023-03-21T05:24:50.174Z,49.76
2023-03-21T05:27:36.932Z,49.98
2023-03-21T05:30:10.973Z,49.82
2023-03-21T05:33:02.245Z,49.82
2023-03-21T05:35:29.162Z,50.00
2023-03-21T05:37:58.350Z,49.96
2023-03-21T05:40:27.365Z,49.89
2023-03-21T05:42:56.884Z,50.03
2023-03-21T05:45:24.436Z,49.76
2023-03-21T05:47:51.591Z,49.94
2023-03-21T05:50:19.792Z,49.88
2023-03-21T05:52:58.743Z,49.98
2023-03-21T05:55:25.184Z,49.92
2023-03-21T05:57:52.293Z,49.97
2023-03-21T06:00:24.716Z,49.79
2023-03-21T06:03:07.726Z,49.92
2023-03-21T06:06:07.673Z,50.00
2023-03-21T06:08:38.917Z,50.00
2023-03-21T06:11:17.628Z,50.25
2023-03-21T06:13:44.159Z,50.03
2023-03-21T06:16:10.567Z,50.23
2023-03-21T06:18:37.796Z,50.03
2023-03-21T06:21:33.171Z,50.20
2023-03-21T06:23:59.502Z,50.13
2023-03-21T06:26:25.855Z,50.11
2023-03-21T06:28:53.648Z,50.07
2023-03-21T06:31:23.213Z,50.04
2023-03-21T06:33:51.597Z,50.06
2023-03-21T06:36:18.067Z,50.10
2023-03-21T06:38:44.426Z,50.07
2023-03-21T06:41:11.207Z,50.31
2023-03-21T06:43:42.939Z,50.44
2023-03-21T06:46:09.270Z,50.28
2023-03-21T06:48:37.449Z,50.24
2023-03-21T06:51:04.841Z,50.33
2023-03-21T06:53:35.096Z,48.05
2023-03-21T06:56:24.887Z,49.01
2023-03-21T06:58:51.548Z,49.22
2023-03-21T07:01:34.798Z,51.50
2023-03-21T07:04:06.252Z,54.67
2023-03-21T07:06:32.818Z,53.15
2023-03-21T07:08:59.245Z,52.30
2023-03-21T07:11:25.612Z,53.88
2023-03-21T07:13:52.029Z,53.42
2023-03-21T07:16:18.453Z,53.49
2023-03-21T07:18:45.380Z,53.91
2023-03-21T07:21:11.853Z,52.86
2023-03-21T07:23:39.424Z,50.99
2023-03-21T07:26:05.920Z,50.05
2023-03-21T07:28:32.334Z,49.23
2023-03-21T07:30:59.224Z,48.38
2023-03-21T07:33:25.558Z,47.97
2023-03-21T07:35:54.031Z,46.99
2023-03-21T07:38:21.155Z,47.36
2023-03-21T07:40:48.145Z,47.61
2023-03-21T07:43:14.734Z,47.29
2023-03-21T07:45:43.541Z,47.26
2023-03-21T07:48:10.371Z,47.26
2023-03-21T07:50:36.796Z,47.45
2023-03-21T07:53:03.131Z,47.40
2023-03-21T07:55:29.628Z,48.02
2023-03-21T07:57:55.967Z,48.21
2023-03-21T08:00:25.268Z,48.18
2023-03-21T08:02:57.936Z,47.66
2023-03-21T08:05:26.010Z,47.57
2023-03-21T08:07:52.388Z,48.02
2023-03-21T08:10:18.721Z,47.94
2023-03-21T08:12:45.261Z,47.79
2023-03-21T08:15:12.546Z,47.98
2023-03-21T08:17:39.879Z,47.61
2023-03-21T08:20:08.216Z,47.56
2023-03-21T08:22:35.000Z,47.77
2023-03-21T08:25:01.410Z,47.89
2023-03-21T08:27:27.743Z,47.34
2023-03-21T08:29:54.065Z,48.22
2023-03-21T08:32:20.446Z,47.75
2023-03-21T08:34:46.805Z,48.47
2023-03-21T08:37:13.170Z,48.08
2023-03-21T08:39:39.654Z,48.28
2023-03-21T08:42:06.022Z,47.50
2023-03-21T08:44:32.344Z,47.94
2023-03-21T08:46:58.683Z,48.04
2023-03-21T08:49:26.072Z,48.43
2023-03-21T08:51:55.339Z,48.40
2023-03-21T08:54:21.720Z,48.72
2023-03-21T08:56:48.049Z,48.92
2023-03-21T08:59:14.516Z,48.82
2023-03-21T09:01:41.170Z,48.12
2023-03-21T09:04:10.717Z,47.83
2023-03-21T09:06:37.523Z,47.75
2023-03-21T09:09:05.874Z,47.73
2023-03-21T09:11:32.197Z,47.73
2023-03-21T09:13:58.540Z,47.76
2023-03-21T09:16:25.021Z,47.22
2023-03-21T09:18:55.732Z,47.40
2023-03-21T09:21:22.819Z,47.44
2023-03-21T09:23:52.576Z,47.71
2023-03-21T09:26:19.234Z,48.47
2023-03-21T09:28:46.281Z,49.23
2023-03-21T09:31:12.856Z,49.60
2023-03-21T09:33:40.673Z,49.31
2023-03-21T09:36:11.758Z,50.10
2023-03-21T09:38:39.501Z,50.20
2023-03-21T09:41:08.866Z,50.12
2023-03-21T09:43:35.470Z,49.75
2023-03-21T09:46:04.798Z,49.69
2023-03-21T09:48:37.675Z,52.30
2023-03-21T09:51:06.143Z,51.38
2023-03-21T09:53:33.354Z,50.07
2023-03-21T09:56:00.116Z,49.39
2023-03-21T09:58:28.204Z,49.07
2023-03-21T10:01:22.201Z,48.92
2023-03-21T10:03:50.334Z,48.60
2023-03-21T10:06:16.786Z,49.04
2023-03-21T10:08:44.996Z,48.70
2023-03-21T10:11:27.996Z,49.60
2023-03-21T10:13:58.736Z,49.56
2023-03-21T10:16:27.480Z,49.66
2023-03-21T10:18:54.025Z,49.95
2023-03-21T10:21:51.510Z,50.13
2023-03-21T10:24:20.624Z,50.13
2023-03-21T10:26:46.955Z,50.17
2023-03-21T10:29:13.935Z,50.21
2023-03-21T10:31:40.381Z,49.32
2023-03-21T10:34:09.899Z,49.35
2023-03-21T10:36:36.324Z,49.01
2023-03-21T10:39:04.631Z,49.02
2023-03-21T10:41:31.267Z,48.86
2023-03-21T10:44:04.344Z,49.34
2023-03-21T10:46:32.129Z,49.13
2023-03-21T10:48:59.854Z,49.18
2023-03-21T10:51:27.352Z,49.18
2023-03-21T10:53:54.661Z,49.34
2023-03-21T10:56:23.129Z,49.36
2023-03-21T10:58:49.451Z,49.61
2023-03-21T11:01:22.014Z,49.56
2023-03-21T11:03:48.432Z,49.63
2023-03-21T11:06:22.707Z,49.20
2023-03-21T11:08:49.808Z,48.83
2023-03-21T11:11:20.433Z,48.59
2023-03-21T11:13:47.145Z,48.92
2023-03-21T11:16:23.063Z,48.92
2023-03-21T11:18:50.222Z,49.14
2023-03-21T11:21:16.895Z,48.65
2023-03-21T11:23:47.939Z,49.37
2023-03-21T11:26:19.953Z,49.24
2023-03-21T11:28:46.283Z,48.85
2023-03-21T11:31:12.760Z,49.21
2023-03-21T11:33:40.582Z,48.62
2023-03-21T11:36:25.007Z,48.66
2023-03-21T11:38:52.291Z,48.54
2023-03-21T11:41:25.710Z,48.45
2023-03-21T11:43:52.232Z,48.69
2023-03-21T11:46:22.480Z,48.80
2023-03-21T11:48:48.919Z,48.30
2023-03-21T11:51:21.610Z,48.24
2023-03-21T11:53:49.330Z,49.26
2023-03-21T11:56:20.586Z,49.68
2023-03-21T11:59:06.796Z,48.62
2023-03-21T12:01:52.253Z,48.19
2023-03-21T12:04:31.814Z,48.11
2023-03-21T12:07:13.534Z,47.92
2023-03-21T12:09:52.840Z,48.23
2023-03-21T12:12:39.243Z,48.28
2023-03-21T12:15:25.784Z,48.20
2023-03-21T12:18:01.169Z,48.19
2023-03-21T12:20:37.436Z,48.12
2023-03-21T12:23:08.545Z,48.04
2023-03-21T12:25:56.281Z,48.26
2023-03-21T12:28:32.648Z,48.06
2023-03-21T12:31:05.864Z,47.70
2023-03-21T12:33:41.909Z,48.24
2023-03-21T12:36:27.164Z,47.28
2023-03-21T12:39:12.411Z,47.35
2023-03-21T12:41:38.653Z,47.20
2023-03-21T12:44:09.648Z,47.25
2023-03-21T12:46:39.992Z,47.19
2023-03-21T12:49:21.994Z,47.05
2023-03-21T12:51:48.638Z,48.07
2023-03-21T12:54:17.588Z,47.86
2023-03-21T12:56:46.829Z,47.94
2023-03-21T12:59:16.188Z,48.22
2023-03-21T13:01:42.920Z,47.99
2023-03-21T13:04:28.294Z,47.96
2023-03-21T13:06:54.630Z,47.92
2023-03-21T13:09:36.813Z,47.89
2023-03-21T13:12:07.774Z,48.03
2023-03-21T13:14:35.602Z,47.90
2023-03-21T13:17:06.749Z,47.80
2023-03-21T13:19:37.988Z,47.76
2023-03-21T13:22:12.266Z,47.90
2023-03-21T13:24:39.557Z,48.59
2023-03-21T13:27:07.006Z,47.73
2023-03-21T13:29:34.557Z,47.35
2023-03-21T13:32:07.137Z,47.33
2023-03-21T13:34:34.319Z,47.20
2023-03-21T13:37:00.710Z,47.51
2023-03-21T13:39:27.797Z,47.95
2023-03-21T13:41:54.662Z,48.29
2023-03-21T13:44:25.713Z,47.64
2023-03-21T13:46:56.296Z,47.60
2023-03-21T13:49:26.659Z,47.40
2023-03-21T13:51:53.495Z,47.06
2023-03-21T13:54:21.728Z,47.34
2023-03-21T13:56:51.756Z,47.58
2023-03-21T13:59:36.429Z,48.27
2023-03-21T14:02:11.864Z,48.21
2023-03-21T14:04:43.283Z,48.24
2023-03-21T14:07:21.722Z,47.52
2023-03-21T14:09:48.966Z,47.16
2023-03-21T14:12:19.217Z,47.46
2023-03-21T14:14:46.414Z,47.80
2023-03-21T14:17:21.962Z,48.14
2023-03-21T14:19:50.921Z,48.49
2023-03-21T14:22:17.322Z,48.31
2023-03-21T14:24:59.268Z,48.20
2023-03-21T14:27:25.988Z,48.44
2023-03-21T14:29:53.343Z,47.78
2023-03-21T14:32:21.539Z,47.55
2023-03-21T14:34:48.819Z,47.42
2023-03-21T14:37:34.426Z,47.36
2023-03-21T14:40:01.345Z,48.13
2023-03-21T14:42:27.748Z,47.37
2023-03-21T14:44:56.572Z,47.48
2023-03-21T14:47:24.036Z,47.38
2023-03-21T14:49:50.388Z,47.43
2023-03-21T14:52:18.289Z,47.47
2023-03-21T14:54:45.320Z,47.22
2023-03-21T14:57:12.203Z,47.44
2023-03-21T14:59:38.797Z,47.41
2023-03-21T15:02:06.296Z,47.18
2023-03-21T15:04:32.924Z,47.18
2023-03-21T15:07:01.680Z,47.39
2023-03-21T15:09:30.057Z,47.55
2023-03-21T15:11:56.635Z,48.05
2023-03-21T15:14:27.107Z,47.75
2023-03-21T15:16:53.832Z,48.11
2023-03-21T15:19:23.202Z,48.23
2023-03-21T15:21:51.065Z,48.44
2023-03-21T15:24:18.348Z,48.77
2023-03-21T15:26:45.989Z,48.37
2023-03-21T15:29:12.318Z,48.47
2023-03-21T15:31:39.093Z,48.40
2023-03-21T15:34:05.443Z,48.63
2023-03-21T15:36:37.535Z,48.04
2023-03-21T15:39:04.192Z,47.92
2023-03-21T15:41:31.045Z,48.37
2023-03-21T15:44:09.513Z,47.98
2023-03-21T15:46:42.520Z,47.95
2023-03-21T15:49:14.600Z,48.04
2023-03-21T15:51:41.399Z,47.93
2023-03-21T15:54:12.879Z,48.16
2023-03-21T15:56:42.251Z,47.92
2023-03-21T15:59:12.748Z,48.74
2023-03-21T16:01:39.256Z,48.04
2023-03-21T16:04:06.989Z,48.49
2023-03-21T16:06:33.676Z,48.33
2023-03-21T16:09:09.044Z,47.78
2023-03-21T16:11:39.554Z,48.30
2023-03-21T16:14:05.896Z,48.00
2023-03-21T16:16:32.257Z,47.67
2023-03-21T16:18:58.844Z,48.23
2023-03-21T16:21:26.588Z,48.23
2023-03-21T16:23:52.934Z,48.33
2023-03-21T16:26:20.862Z,48.25
2023-03-21T16:28:47.183Z,48.47
2023-03-21T16:31:14.154Z,48.60
2023-03-21T16:33:40.488Z,48.71
2023-03-21T16:36:09.941Z,48.82
2023-03-21T16:38:36.262Z,48.87
2023-03-21T17:04:03.463Z,47.80
2023-03-21T17:06:30.188Z,47.31
2023-03-21T17:08:56.806Z,47.36
2023-03-21T17:11:23.469Z,47.36
2023-03-21T17:13:50.471Z,47.25
2023-03-21T17:16:20.793Z,47.91
2023-03-21T17:18:47.172Z,48.15
2023-03-21T17:21:14.631Z,48.68
2023-03-21T17:23:40.990Z,48.04
2023-03-21T17:26:10.624Z,48.22
2023-03-21T17:28:37.252Z,48.31
2023-03-21T17:31:04.279Z,48.34
2023-03-21T17:33:31.076Z,48.39
2023-03-21T17:35:57.447Z,48.56
2023-03-21T17:38:23.810Z,48.54
2023-03-21T17:40:50.629Z,48.48
2023-03-21T17:43:17.616Z,48.52
2023-03-21T17:45:44.264Z,48.36
2023-03-21T17:48:10.726Z,48.42
2023-03-21T17:50:39.152Z,48.65
2023-03-21T17:53:05.940Z,48.46
2023-03-21T17:55:32.352Z,48.41
2023-03-21T17:57:58.727Z,48.63
2023-03-21T18:00:26.012Z,48.45
2023-03-21T18:02:52.408Z,48.39
2023-03-21T18:05:19.059Z,48.52
2023-03-21T18:08:08.857Z,48.69
2023-03-21T18:10:31.742Z,48.49
2023-03-21T18:12:58.913Z,48.55
2023-03-21T18:15:25.393Z,48.57
2023-03-21T18:17:51.724Z,48.31
2023-03-21T18:20:19.905Z,48.40
2023-03-21T18:22:46.410Z,49.00
2023-03-21T18:25:12.806Z,49.05
2023-03-21T18:28:02.100Z,49.10
2023-03-21T18:30:45.071Z,48.76
2023-03-21T18:33:12.306Z,48.63
2023-03-21T18:35:38.710Z,48.54
2023-03-21T18:38:06.608Z,48.69
2023-03-21T18:40:32.935Z,48.82
2023-03-21T18:43:49.988Z,49.51
2023-03-21T18:45:45.592Z,48.92
2023-03-21T18:48:13.352Z,48.51
2023-03-21T18:50:40.587Z,48.57
2023-03-21T18:53:07.479Z,48.76
2023-03-21T18:55:45.380Z,48.21
2023-03-21T18:58:13.182Z,48.19
2023-03-21T19:00:39.859Z,48.39
2023-03-21T19:03:19.266Z,47.87
2023-03-21T19:05:57.724Z,48.00
2023-03-21T19:08:24.144Z,48.23
2023-03-21T19:10:51.202Z,49.02
2023-03-21T19:13:17.575Z,48.89
2023-03-21T19:15:43.922Z,48.71
2023-03-21T19:21:00.824Z,49.04
2023-03-21T19:23:39.825Z,49.31
2023-03-21T19:26:13.557Z,49.30
2023-03-21T19:28:39.886Z,49.44
2023-03-21T19:31:06.676Z,49.66
2023-03-21T19:33:33.201Z,49.85
2023-03-21T19:36:13.005Z,49.90
2023-03-21T19:38:44.137Z,50.12
2023-03-21T19:41:10.521Z,50.10
2023-03-21T19:43:36.874Z,50.40
2023-03-21T19:46:03.236Z,50.68
2023-03-21T19:48:29.636Z,50.58
2023-03-21T19:53:42.758Z,51.12
2023-03-21T19:56:21.201Z,50.90
2023-03-21T19:58:49.419Z,51.37
2023-03-21T20:01:15.816Z,51.87
2023-03-21T20:03:44.103Z,51.16
2023-03-21T20:06:11.529Z,51.12
2023-03-21T20:09:05.402Z,51.05
2023-03-21T20:11:24.192Z,51.11
2023-03-21T20:13:50.559Z,50.91
2023-03-21T20:16:20.357Z,50.97
2023-03-21T20:18:46.950Z,50.90
2023-03-21T20:21:17.890Z,50.85
2023-03-21T20:23:49.056Z,50.85
2023-03-21T20:26:16.247Z,50.85
2023-03-21T20:28:55.942Z,50.85
2023-03-21T20:31:29.098Z,50.83
2023-03-21T20:33:55.575Z,50.78
2023-03-21T20:36:40.516Z,50.72
2023-03-21T20:39:07.591Z,50.85
2023-03-21T20:41:33.967Z,50.85
2023-03-21T20:46:49.530Z,50.89
2023-03-21T20:49:15.899Z,50.91
2023-03-21T20:54:29.569Z,50.82
2023-03-21T20:56:56.691Z,50.85
2023-03-21T20:59:27.151Z,50.71
2023-03-21T21:01:54.783Z,50.85
2023-03-21T21:04:22.424Z,50.85
2023-03-21T21:06:49.354Z,50.75
2023-03-21T21:09:15.942Z,50.88
2023-03-21T21:14:28.677Z,50.89
2023-03-21T21:16:55.053Z,50.88
2023-03-21T21:19:21.612Z,50.88
2023-03-21T21:21:48.006Z,50.84
2023-03-21T21:24:14.749Z,50.82
2023-03-21T21:26:46.106Z,50.69
2023-03-21T21:29:16.575Z,50.80
2023-03-21T21:31:44.385Z,50.96
2023-03-21T21:34:10.854Z,50.83
2023-03-21T21:36:37.262Z,50.91
2023-03-21T21:39:04.233Z,50.93
2023-03-21T21:41:30.638Z,50.91
2023-03-21T21:43:56.973Z,50.93
2023-03-21T21:46:23.371Z,50.70
2023-03-21T21:48:49.721Z,50.87
2023-03-21T21:51:26.106Z,50.84
2023-03-21T21:53:55.736Z,50.87
2023-03-21T21:56:22.695Z,50.82
2023-03-21T21:58:49.024Z,50.96
2023-03-21T22:01:15.425Z,50.82
2023-03-21T22:03:42.656Z,50.93
2023-03-21T22:06:09.279Z,50.74
2023-03-21T22:08:38.539Z,50.87
2023-03-21T22:11:04.930Z,50.90
2023-03-21T22:13:31.270Z,50.80
2023-03-21T22:15:57.645Z,50.85
2023-03-21T22:18:24.020Z,50.90
2023-03-21T22:20:50.473Z,50.87
2023-03-21T22:23:19.299Z,50.80
2023-03-21T22:25:49.296Z,50.79
2023-03-21T22:28:17.717Z,50.81
2023-03-21T22:30:44.030Z,50.89
2023-03-21T22:33:10.371Z,50.89
2023-03-21T22:35:36.761Z,51.06
2023-03-21T22:38:03.126Z,50.86
2023-03-21T22:40:29.446Z,50.86
2023-03-21T22:42:55.781Z,50.80
2023-03-21T22:45:22.094Z,50.73
2023-03-21T22:47:48.523Z,50.95
2023-03-21T22:50:14.884Z,50.93
2023-03-21T22:52:41.254Z,50.98
2023-03-21T22:55:09.901Z,50.93
2023-03-21T22:57:36.251Z,50.80
2023-03-21T23:00:03.000Z,50.97
2023-03-21T23:02:29.340Z,50.79
2023-03-21T23:04:55.833Z,50.98
2023-03-21T23:07:22.185Z,50.81
2023-03-21T23:09:48.509Z,50.96
2023-03-21T23:12:14.904Z,50.90
2023-03-21T23:14:41.449Z,50.96
2023-03-21T23:17:10.004Z,50.93
2023-03-21T23:19:36.355Z,50.96
2023-03-21T23:22:02.690Z,50.94
2023-03-21T23:24:29.054Z,50.82
2023-03-21T23:26:55.482Z,50.93
2023-03-21T23:29:21.806Z,50.76
2023-03-21T23:31:48.148Z,50.78
2023-03-21T23:34:14.483Z,50.87
2023-03-21T23:36:40.946Z,50.93
2023-03-21T23:39:07.480Z,50.88
2023-03-21T23:41:33.941Z,50.87
2023-03-21T23:44:00.268Z,50.84
2023-03-21T23:46:26.604Z,50.91
2023-03-21T23:48:53.005Z,50.88
2023-03-21T23:51:19.383Z,50.85
2023-03-21T23:53:45.778Z,50.77
2023-03-21T23:56:18.836Z,50.71
2023-03-21T23:58:45.505Z,50.72
